Harper, West Virginia
Current Conditions -  °F | °C
As of 3:51 PM on Thursday 27 Nov 2014 (Local Time) from KBKW Reporting Station
Overcast Overcast  
Wind Chill: 18°   Ceiling: 1700
Heat Index: 28°   Visibility: 10mi
Dew Point: 21°   Wind: 12mph
Humidity: 75%   Direction: 300°WNW
Pressure: 30.13"   Gusts: NA
Location:  37.8°N, 81.26°W
Report Text: KBKW 272051Z AUTO 30010KT 10SM BKN017 OVC024 M02/M06 A3013 RMK AO2 UPE1958SNB1958E28 SLP232 P0000 60000 T10221061 53015
Loading
Personal Weather Stations






























Interactive Weather Map New forecast layout! Learn more

10-Day Weather Forecast

Advertisements
Track Severe Weather on mobile